createdAt,value
2022-08-18T00:01:20.418Z,15.6
2022-08-18T00:07:25.971Z,16
2022-08-18T00:09:31.976Z,16.4
2022-08-18T00:11:41.492Z,15.6
2022-08-18T00:13:34.667Z,16
2022-08-18T00:15:41.785Z,16.7
2022-08-18T00:17:38.382Z,15.5
2022-08-18T00:18:40.907Z,15
2022-08-18T00:20:42.745Z,15.4
2022-08-18T00:22:44.632Z,17.9
2022-08-18T00:24:47.542Z,15.3
2022-08-18T00:26:51.468Z,16
2022-08-18T00:28:53.340Z,16.5
2022-08-18T00:30:55.171Z,16.3
2022-08-18T00:32:57.032Z,16.5
2022-08-18T00:34:58.906Z,16.7
2022-08-18T00:37:00.758Z,17.8
2022-08-18T00:41:07.651Z,16.2
2022-08-18T00:47:13.229Z,15.8
2022-08-18T00:49:15.054Z,16.1
2022-08-18T00:51:16.936Z,14.7
2022-08-18T00:53:18.764Z,16.3
2022-08-18T00:57:25.637Z,16.5
2022-08-18T00:59:27.496Z,17.2
2022-08-18T01:05:33.084Z,15.1
2022-08-18T01:07:34.940Z,17
2022-08-18T01:09:39.942Z,17.1
2022-08-18T01:11:41.806Z,17.5
2022-08-18T01:13:43.655Z,15.2
2022-08-18T01:14:46.189Z,21.1
2022-08-18T01:22:56.752Z,15.6
2022-08-18T01:29:02.484Z,14.9
2022-08-18T01:31:04.327Z,17.1
2022-08-18T01:37:14.593Z,13.9
2022-08-18T01:39:16.456Z,14.1
2022-08-18T01:41:28.723Z,15.6
2022-08-18T01:45:22.024Z,15.4
2022-08-18T01:47:23.874Z,13.1
2022-08-18T01:49:25.733Z,15.2
2022-08-18T01:51:36.278Z,16.1
2022-08-18T01:53:32.611Z,16.8
2022-08-18T01:55:34.456Z,13.6
2022-08-18T02:10:53.116Z,15.2
2022-08-18T02:12:54.994Z,15.6
2022-08-18T02:14:56.860Z,16.7
2022-08-18T02:17:02.195Z,16.7
2022-08-18T02:19:03.725Z,16.4
2022-08-18T02:21:05.571Z,15.4
2022-08-18T02:23:07.438Z,15.5
2022-08-18T02:25:09.295Z,15
2022-08-18T02:27:11.150Z,16.3
2022-08-18T02:29:13.004Z,16
2022-08-18T02:37:23.591Z,15.4
2022-08-18T02:55:43.490Z,15.9
2022-08-18T02:59:47.398Z,15.3
2022-08-18T03:12:28.196Z,14.7
2022-08-18T03:18:36.921Z,14.4
2022-08-18T03:20:38.793Z,13.2
2022-08-18T03:22:40.631Z,14.8
2022-08-18T03:24:42.490Z,13.7
2022-08-18T03:28:49.345Z,14.8
2022-08-18T03:30:51.207Z,13.6
2022-08-18T03:32:53.073Z,15.6
2022-08-18T03:34:54.928Z,14.7
2022-08-18T03:36:56.792Z,16.3
2022-08-18T03:38:58.644Z,15.1
2022-08-18T03:41:00.562Z,14.2
2022-08-18T03:43:05.594Z,14.7
2022-08-18T03:45:13.160Z,14.2
2022-08-18T03:47:09.279Z,15.1
2022-08-18T03:49:11.147Z,14.7
2022-08-18T03:51:12.991Z,13.1
2022-08-18T03:53:14.864Z,13.9
2022-08-18T03:55:16.710Z,14
2022-08-18T03:57:21.724Z,14.7
2022-08-18T03:59:23.611Z,13.3
2022-08-18T04:01:26.605Z,13.9
2022-08-18T04:02:27.949Z,14.3
2022-08-18T04:04:29.854Z,13.4
2022-08-18T04:08:33.515Z,13.7
2022-08-18T04:10:38.544Z,15
2022-08-18T04:12:40.392Z,14
2022-08-18T04:22:49.660Z,13.7
2022-08-18T04:24:54.673Z,14.1
2022-08-18T04:26:56.522Z,13.7
2022-08-18T04:28:58.357Z,13.1
2022-08-18T04:31:00.238Z,13.5
2022-08-18T04:33:02.083Z,16.6
2022-08-18T04:35:03.935Z,14
2022-08-18T04:37:05.792Z,12.4
2022-08-18T04:39:10.825Z,14.9
2022-08-18T04:41:12.649Z,14.9
2022-08-18T04:47:18.230Z,12.5
2022-08-18T04:49:20.094Z,14.3
2022-08-18T04:52:34.243Z,14.6
2022-08-18T04:53:26.948Z,14.9
2022-08-18T04:55:28.838Z,14.5
2022-08-18T04:57:33.787Z,16.9
2022-08-18T04:58:33.200Z,15.1
2022-08-18T05:00:35.042Z,14.6
2022-08-18T05:02:36.884Z,14.7
2022-08-18T05:04:38.764Z,14
2022-08-18T05:06:43.788Z,14.6
2022-08-18T05:08:45.634Z,14.4
2022-08-18T05:10:47.508Z,15
2022-08-18T05:18:54.923Z,16.6
2022-08-18T05:23:01.804Z,14.8
2022-08-18T05:25:03.691Z,14.6
2022-08-18T05:35:16.134Z,15
2022-08-18T05:37:17.998Z,14.6
2022-08-18T05:41:21.686Z,15.5
2022-08-18T05:43:23.563Z,16.7
2022-08-18T05:49:32.279Z,16.4
2022-08-18T05:51:34.137Z,15.8
2022-08-18T05:58:42.218Z,14.4
2022-08-18T06:15:00.252Z,12.9
2022-08-18T06:17:05.255Z,14.5
2022-08-18T06:19:07.092Z,12.4
2022-08-18T06:21:08.961Z,10.8
2022-08-18T06:23:10.823Z,13
2022-08-18T06:25:12.656Z,12.3
2022-08-18T06:27:14.552Z,11.6
2022-08-18T06:29:16.370Z,12.4
2022-08-18T06:35:25.085Z,9.9
2022-08-18T06:37:26.921Z,8.3
2022-08-18T06:39:28.817Z,8.9
2022-08-18T06:43:32.447Z,12.9
2022-08-18T06:52:09.538Z,8.7
2022-08-18T06:54:11.387Z,8.1
2022-08-18T06:56:25.979Z,7.8
2022-08-18T06:58:18.229Z,10.2
2022-08-18T07:00:20.140Z,9.6
2022-08-18T07:02:21.943Z,8.3
2022-08-18T07:04:23.794Z,8
2022-08-18T07:08:27.476Z,9.8
2022-08-18T07:10:29.325Z,8.7
2022-08-18T07:12:34.336Z,8.5
2022-08-18T07:14:36.176Z,8.6
2022-08-18T07:16:57.694Z,7.4
2022-08-18T07:18:39.831Z,7.5
2022-08-18T07:20:41.673Z,7.5
2022-08-18T07:22:43.498Z,7.1
2022-08-18T07:24:46.898Z,7.6
2022-08-18T07:26:51.853Z,7.3
2022-08-18T07:28:53.682Z,7.6
2022-08-18T07:31:15.891Z,7.4
2022-08-18T07:32:57.364Z,6.1
2022-08-18T07:34:59.167Z,6.6
2022-08-18T07:37:01.023Z,6.5
2022-08-18T07:39:02.843Z,6.5
2022-08-18T07:43:09.684Z,6.7
2022-08-18T07:45:11.519Z,6.7
2022-08-18T07:46:14.001Z,6.6
2022-08-18T07:48:37.108Z,6
2022-08-18T07:50:36.239Z,4.9
2022-08-18T07:52:36.505Z,6.4
2022-08-18T07:54:45.406Z,4.7
2022-08-18T07:56:26.267Z,4.1
2022-08-18T07:58:28.083Z,4.6
2022-08-18T08:00:57.047Z,4.7
2022-08-18T08:02:31.710Z,3.8
2022-08-18T08:04:33.514Z,4.7
2022-08-18T08:06:35.332Z,2.9
2022-08-18T08:10:42.110Z,3.9
2022-08-18T08:12:43.920Z,4
2022-08-18T08:14:45.748Z,4
2022-08-18T08:20:50.990Z,3.9
2022-08-18T08:22:56.445Z,4.1
2022-08-18T08:24:58.253Z,3.9
2022-08-18T08:29:01.866Z,4
2022-08-18T08:31:25.800Z,4.6
2022-08-18T08:33:05.646Z,2.9
2022-08-18T08:35:07.455Z,3.3
2022-08-18T08:37:12.268Z,3.8
2022-08-18T08:39:14.055Z,3.4
2022-08-18T08:41:15.835Z,3.3
2022-08-18T08:42:31.985Z,3.2
2022-08-18T08:44:20.130Z,3.5
2022-08-18T08:46:21.940Z,3
2022-08-18T08:48:23.714Z,3
2022-08-18T08:50:28.695Z,2.6
2022-08-18T08:52:30.473Z,3.1
2022-08-18T08:54:32.288Z,3.1
2022-08-18T09:02:47.850Z,3.6
2022-08-18T09:05:07.667Z,3
2022-08-18T09:08:47.996Z,4
2022-08-18T09:10:49.809Z,3.6
2022-08-18T09:12:51.744Z,3.2
2022-08-18T09:14:53.393Z,3.5
2022-08-18T09:16:55.161Z,4.4
2022-08-18T09:19:00.125Z,3.1
2022-08-18T09:21:01.919Z,3.2
2022-08-18T09:23:03.682Z,2.9
2022-08-18T09:25:05.479Z,3.4
2022-08-18T09:27:07.242Z,2.6
2022-08-18T09:29:09.033Z,2.6
2022-08-18T09:31:10.832Z,2.9
2022-08-18T09:33:18.683Z,3.2
2022-08-18T09:35:17.539Z,2.9
2022-08-18T09:37:19.325Z,3.8
2022-08-18T09:38:21.787Z,3.3
2022-08-18T09:44:27.128Z,2.6
2022-08-18T09:46:32.068Z,2.9
2022-08-18T09:48:33.831Z,3.4
2022-08-18T09:50:35.619Z,2.7
2022-08-18T09:52:37.676Z,3.9
2022-08-18T09:58:42.806Z,4
2022-08-18T10:00:47.670Z,7.8
2022-08-18T10:04:51.230Z,3
2022-08-18T10:06:52.931Z,2.7
2022-08-18T10:08:54.696Z,2.7
2022-08-18T10:10:59.783Z,16.1
2022-08-18T10:12:58.233Z,5.4
2022-08-18T10:15:03.230Z,4.1
2022-08-18T10:17:23.647Z,3.1
2022-08-18T10:19:06.675Z,3.3
2022-08-18T10:21:08.441Z,2.9
2022-08-18T10:23:10.194Z,2.4
2022-08-18T10:25:22.096Z,3.1
2022-08-18T10:27:13.934Z,3.1
2022-08-18T10:29:18.627Z,3.3
2022-08-18T10:31:24.080Z,4.1
2022-08-18T10:33:22.140Z,4.7
2022-08-18T10:35:50.475Z,2.9
2022-08-18T10:37:52.226Z,8.9
2022-08-18T10:39:53.959Z,2.4
2022-08-18T10:41:58.883Z,3.1
2022-08-18T10:44:00.580Z,2.3
2022-08-18T10:46:25.449Z,2.7
2022-08-18T10:48:04.086Z,2.7
2022-08-18T10:50:05.797Z,3
2022-08-18T10:52:07.545Z,2.4
2022-08-18T10:54:09.278Z,3
2022-08-18T10:56:14.195Z,3.3
2022-08-18T10:58:15.993Z,3.3
2022-08-18T11:00:17.717Z,2.5
2022-08-18T11:02:19.414Z,2.1
2022-08-18T11:04:34.526Z,2.1
2022-08-18T11:06:22.874Z,2.3
2022-08-18T11:08:24.623Z,2.2
2022-08-18T11:14:34.106Z,2.3
2022-08-18T11:18:43.223Z,2.7
2022-08-18T11:31:53.533Z,3.1
2022-08-18T11:33:54.324Z,2.9
2022-08-18T11:38:01.001Z,3.3
2022-08-18T11:40:02.790Z,5.2
2022-08-18T11:42:04.611Z,9
2022-08-18T11:48:09.718Z,6
2022-08-18T11:50:11.449Z,3.9
2022-08-18T11:52:16.385Z,3.9
2022-08-18T12:00:23.923Z,4.7
2022-08-18T12:04:26.865Z,5.6
2022-08-18T12:06:31.808Z,2.7
2022-08-18T12:14:38.809Z,1.9
2022-08-18T12:18:42.281Z,1.7
2022-08-18T12:20:47.244Z,1.8
2022-08-18T12:22:49.261Z,2.1
2022-08-18T12:25:53.216Z,3.1
2022-08-18T12:27:54.988Z,3
2022-08-18T12:29:57.648Z,3.1
2022-08-18T12:31:58.473Z,2.9
2022-08-18T12:34:03.408Z,2.3
2022-08-18T12:36:05.165Z,2.6
2022-08-18T12:38:12.865Z,2
2022-08-18T12:40:08.842Z,3.2
2022-08-18T12:42:10.428Z,3.4
2022-08-18T12:44:13.016Z,2.5
2022-08-18T12:46:13.930Z,2.8
2022-08-18T12:48:22.298Z,3.9
2022-08-18T12:52:22.373Z,3.7
2022-08-18T12:56:25.894Z,3.1
2022-08-18T13:00:29.585Z,3.5
2022-08-18T13:02:34.364Z,3.5
2022-08-18T13:04:36.163Z,4.8
2022-08-18T13:06:37.893Z,5.5
2022-08-18T13:08:49.960Z,3.9
2022-08-18T13:10:45.140Z,3.9
2022-08-18T13:12:43.210Z,4.9
2022-08-18T13:14:45.016Z,3
2022-08-18T13:16:54.064Z,4.3
2022-08-18T13:18:53.222Z,4.1
2022-08-18T13:20:55.006Z,2.9
2022-08-18T13:21:57.520Z,4.2
2022-08-18T13:23:59.241Z,4.2
2022-08-18T13:26:02.056Z,4.1
2022-08-18T13:28:02.779Z,3.6
2022-08-18T13:30:30.103Z,3.9
2022-08-18T13:32:09.493Z,3.7
2022-08-18T13:34:11.566Z,3.4
2022-08-18T13:36:13.035Z,4
2022-08-18T13:38:20.649Z,3.7
2022-08-18T13:40:16.635Z,3.2
2022-08-18T13:42:26.565Z,6
2022-08-18T13:44:25.865Z,3
2022-08-18T13:46:31.194Z,2.9
2022-08-18T13:48:26.844Z,3.9
2022-08-18T13:50:29.923Z,4.5
2022-08-18T13:52:35.595Z,5.2
2022-08-18T13:54:35.213Z,3.6
2022-08-18T13:56:33.902Z,3.8
2022-08-18T13:58:38.850Z,5.3
2022-08-18T14:00:40.629Z,23.7
2022-08-18T14:02:42.376Z,6.2
2022-08-18T14:04:44.314Z,3.3
2022-08-18T14:06:46.734Z,3.3
2022-08-18T14:08:47.674Z,2.6
2022-08-18T14:10:49.704Z,2.8
2022-08-18T14:12:54.385Z,2.9
2022-08-18T14:14:56.928Z,2.8
2022-08-18T14:16:57.908Z,3.1
2022-08-18T14:19:26.316Z,2.7
2022-08-18T14:21:28.093Z,4.7
2022-08-18T14:23:33.434Z,3.5
2022-08-18T14:25:34.768Z,3.3
2022-08-18T14:27:36.519Z,2.8
2022-08-18T14:29:44.804Z,3.8
2022-08-18T14:31:40.061Z,3.2
2022-08-18T14:36:06.743Z,2.6
2022-08-18T14:41:55.898Z,2
2022-08-18T14:44:11.391Z,3.3
2022-08-18T14:45:58.173Z,2.6
2022-08-18T14:47:57.742Z,3.2
2022-08-18T14:52:00.834Z,8.7
2022-08-18T14:54:05.766Z,3.1
2022-08-18T14:58:09.294Z,2.7
2022-08-18T15:00:11.049Z,2.9
2022-08-18T15:02:13.515Z,2.8
2022-08-18T15:04:18.430Z,2.9
2022-08-18T15:06:17.268Z,3.9
2022-08-18T15:10:23.758Z,2.4
2022-08-18T15:12:24.714Z,2.7
2022-08-18T15:13:27.687Z,2.3
2022-08-18T15:15:42.254Z,3.9
2022-08-18T15:17:30.628Z,2.5
2022-08-18T15:19:58.358Z,2.1
2022-08-18T15:21:38.743Z,2.5
2022-08-18T15:23:38.981Z,1.7
2022-08-18T15:25:40.689Z,2.2
2022-08-18T15:27:43.280Z,2.3
2022-08-18T15:29:44.900Z,1.8
2022-08-18T15:31:49.937Z,2.7
2022-08-18T15:37:54.662Z,2.2
2022-08-18T15:39:56.321Z,2.4
2022-08-18T15:48:03.101Z,4.4
2022-08-18T15:58:14.884Z,1.7
2022-08-18T16:04:23.249Z,2.3
2022-08-18T16:09:29.148Z,2.3
2022-08-18T16:11:30.884Z,2.1
2022-08-18T16:15:36.745Z,2.5
2022-08-18T16:17:39.244Z,1.7
2022-08-18T16:19:40.952Z,1.5
2022-08-18T16:21:42.664Z,2.2
2022-08-18T16:23:44.405Z,4.2
2022-08-18T16:25:46.129Z,2
2022-08-18T16:27:47.919Z,2.3
2022-08-18T16:29:49.579Z,2
2022-08-18T16:40:01.382Z,2.2
2022-08-18T16:42:03.115Z,2.5
2022-08-18T16:44:04.819Z,4.8
2022-08-18T16:46:09.720Z,2.5
2022-08-18T16:48:14.217Z,1.6
2022-08-18T16:50:13.181Z,3.1
2022-08-18T16:52:14.915Z,2.9
2022-08-18T16:54:16.627Z,2.2
2022-08-18T16:56:18.358Z,2.2
2022-08-18T16:58:20.082Z,17.8
2022-08-18T17:00:24.987Z,2.5
2022-08-18T17:02:26.752Z,2.2
2022-08-18T17:04:28.420Z,1.9
2022-08-18T17:05:30.893Z,2.2
2022-08-18T17:07:32.606Z,1.5
2022-08-18T17:09:34.335Z,1.9
2022-08-18T17:11:36.042Z,2
2022-08-18T17:13:41.010Z,2.1
2022-08-18T17:15:42.693Z,2.2
2022-08-18T17:17:44.424Z,2.2
2022-08-18T17:19:46.142Z,2.1
2022-08-18T17:21:47.860Z,1.5
2022-08-18T17:25:51.312Z,2.4
2022-08-18T17:27:56.234Z,3.1
2022-08-18T17:29:57.963Z,2.6
2022-08-18T17:31:59.718Z,2.1
2022-08-18T17:40:06.740Z,2.4
2022-08-18T17:48:16.753Z,2.6
2022-08-18T17:50:27.783Z,2.1
2022-08-18T17:52:20.250Z,2.9
2022-08-18T17:54:21.979Z,2.1
2022-08-18T17:56:35.351Z,2.6
2022-08-18T17:58:28.637Z,2
2022-08-18T18:00:30.396Z,1.6
2022-08-18T18:02:58.797Z,3.2
2022-08-18T18:05:00.528Z,3
2022-08-18T18:07:02.278Z,2.5
2022-08-18T18:09:07.208Z,2
2022-08-18T18:13:10.682Z,2.7
2022-08-18T18:19:15.959Z,4.5
2022-08-18T18:21:17.694Z,2.8
2022-08-18T18:23:22.640Z,2.4
2022-08-18T18:27:26.163Z,2.4
2022-08-18T18:29:29.321Z,1.9
2022-08-18T18:31:29.670Z,2.2
2022-08-18T18:35:34.197Z,2
2022-08-18T18:37:38.089Z,1.7
2022-08-18T18:45:45.137Z,5
2022-08-18T18:47:46.923Z,6.5
2022-08-18T18:49:48.659Z,2.7
2022-08-18T18:51:53.603Z,3.6
2022-08-18T18:53:55.382Z,8.1
2022-08-18T18:55:57.110Z,2.4
2022-08-18T18:56:59.584Z,2.8
2022-08-18T18:59:01.363Z,2.2
2022-08-18T19:01:03.185Z,2.2
2022-08-18T19:03:04.878Z,5.3
2022-08-18T19:05:11.357Z,4.3
2022-08-18T19:07:21.105Z,3.1
2022-08-18T19:11:16.646Z,4.1
2022-08-18T19:13:32.513Z,4
2022-08-18T19:15:20.158Z,4.3
2022-08-18T19:17:21.953Z,2.7
2022-08-18T19:19:36.176Z,2.4
2022-08-18T19:22:03.235Z,3
2022-08-18T19:25:32.200Z,2.7
2022-08-18T19:27:34.221Z,2.4
2022-08-18T19:29:35.752Z,2.6
2022-08-18T19:31:37.531Z,3
2022-08-18T19:33:43.655Z,2.6
2022-08-18T19:37:46.033Z,2.4
2022-08-18T19:45:53.133Z,2.5
2022-08-18T19:53:04.114Z,3.4
2022-08-18T19:55:05.877Z,2.7
2022-08-18T19:57:07.673Z,2.4
2022-08-18T19:59:18.654Z,2
2022-08-18T20:01:21.050Z,2.8
2022-08-18T20:03:16.206Z,3
2022-08-18T20:05:17.986Z,2.4
2022-08-18T20:07:19.795Z,2.8
2022-08-18T20:09:21.581Z,4.4
2022-08-18T20:13:25.172Z,3
2022-08-18T20:15:30.140Z,2.6
2022-08-18T20:21:39.911Z,2.9
2022-08-18T20:23:37.302Z,2.9
2022-08-18T20:25:39.114Z,2.4
2022-08-18T20:29:45.882Z,3.4
2022-08-18T20:31:47.704Z,2.6
2022-08-18T20:35:51.298Z,2.8
2022-08-18T20:37:53.143Z,3.4
2022-08-18T20:39:55.006Z,4
2022-08-18T20:41:56.708Z,2.4
2022-08-18T20:44:01.735Z,2.8
2022-08-18T20:46:03.508Z,3.3
2022-08-18T20:48:05.364Z,3.6
2022-08-18T20:55:13.278Z,3.4
2022-08-18T20:57:18.259Z,3.4
2022-08-18T20:59:20.319Z,3.7
2022-08-18T21:01:21.990Z,3.5
2022-08-18T21:03:23.722Z,3.5
2022-08-18T21:05:27.851Z,3.5
2022-08-18T21:07:36.610Z,3.8
2022-08-18T21:09:29.213Z,4.2
2022-08-18T21:13:36.018Z,4
2022-08-18T21:15:37.828Z,3.1
2022-08-18T21:17:39.678Z,4.4
2022-08-18T21:19:41.510Z,3.5
2022-08-18T21:21:43.318Z,3.7
2022-08-18T21:23:45.165Z,3.8
2022-08-18T21:25:50.160Z,3.2
2022-08-18T21:27:51.983Z,4.9
2022-08-18T21:29:53.808Z,3.8
2022-08-18T21:31:55.632Z,3.7
2022-08-18T21:33:57.467Z,3.8
2022-08-18T21:40:06.191Z,3.9
2022-08-18T21:42:07.985Z,3.8
2022-08-18T21:44:09.812Z,3.9
2022-08-18T21:46:38.325Z,4.4
2022-08-18T21:48:40.149Z,3.1
2022-08-18T21:52:47.045Z,4.6
2022-08-18T21:54:48.848Z,4.7
2022-08-18T21:56:50.668Z,4.7
2022-08-18T21:58:52.522Z,4.3
2022-08-18T22:00:54.552Z,4.6
2022-08-18T22:02:56.214Z,4.6
2022-08-18T22:04:58.066Z,4.5
2022-08-18T22:07:03.083Z,3.8
2022-08-18T22:11:06.744Z,5.5
2022-08-18T22:13:08.587Z,4.4
2022-08-18T22:21:19.136Z,5.7
2022-08-18T22:31:28.339Z,5.2
2022-08-18T22:35:35.190Z,6
2022-08-18T22:37:37.039Z,5.5
2022-08-18T22:39:38.988Z,5
2022-08-18T22:40:41.404Z,6.3
2022-08-18T22:42:43.250Z,5.8
2022-08-18T22:44:45.098Z,5.8
2022-08-18T22:46:46.949Z,5.9
2022-08-18T22:48:52.021Z,6.4
2022-08-18T22:50:53.852Z,7.1
2022-08-18T22:52:55.732Z,7.2
2022-08-18T22:54:57.548Z,6.9
2022-08-18T22:56:59.424Z,7.9
2022-08-18T22:59:07.109Z,6.8
2022-08-18T23:03:08.163Z,8.1
2022-08-18T23:09:13.712Z,8.3
2022-08-18T23:11:15.555Z,8.1
2022-08-18T23:13:17.407Z,9.8
2022-08-18T23:15:19.301Z,10
2022-08-18T23:17:24.292Z,9.2
2022-08-18T23:19:26.173Z,10.5
2022-08-18T23:21:34.611Z,10.5
2022-08-18T23:25:31.762Z,11
2022-08-18T23:27:33.620Z,9.9
2022-08-18T23:29:35.479Z,8.4
2022-08-18T23:31:40.514Z,10.3
2022-08-18T23:36:46.738Z,10.5
2022-08-18T23:38:48.596Z,10.4
2022-08-18T23:40:50.484Z,9.6
2022-08-18T23:42:52.519Z,10.3
2022-08-18T23:44:57.361Z,11.8
2022-08-18T23:46:59.230Z,11.3
2022-08-18T23:49:01.072Z,11
2022-08-18T23:51:03.024Z,10.5
2022-08-18T23:53:04.839Z,10.3
2022-08-18T23:55:06.689Z,10.7
2022-08-18T23:57:08.543Z,10.9
2022-08-18T23:59:13.574Z,10.5
